Time;durP1;ratioP1;P1;durP2;ratioP2;P2;SDS_P1;SDS_P2;PMS_P1;PMS_P2;Temp;Humidity;BMP_temperature;BMP_pressure;BME280_temperature;BME280_humidity;BME280_pressure;Samples;Min_cycle;Max_cycle;Signal;HPM_P1;HPM_P2
2021/09/05 00:00:25;;;;;;;10.90;5.80;;;12.80;99.90;;;;;;5057219;28;20032;-51
2021/09/05 00:02:51;;;;;;;8.48;5.93;;;12.80;99.90;;;;;;5059052;28;20087;-49
2021/09/05 00:05:16;;;;;;;8.98;6.68;;;12.70;99.90;;;;;;5057074;28;20029;-49
2021/09/05 00:07:42;;;;;;;8.25;5.43;;;12.70;99.90;;;;;;5058770;28;20025;-50
2021/09/05 00:10:08;;;;;;;9.00;5.70;;;12.70;99.90;;;;;;5060084;28;20028;-49
2021/09/05 00:12:34;;;;;;;7.82;5.93;;;12.70;99.90;;;;;;5044568;28;20418;-53
2021/09/05 00:15:00;;;;;;;8.25;5.28;;;12.70;99.90;;;;;;5043011;28;20517;-52
2021/09/05 00:17:26;;;;;;;8.35;5.40;;;12.70;99.90;;;;;;5060845;28;20029;-50
2021/09/05 00:19:51;;;;;;;7.43;5.82;;;12.60;99.90;;;;;;5044798;28;20506;-54
2021/09/05 00:22:17;;;;;;;7.97;5.47;;;12.60;99.90;;;;;;5059104;28;20035;-52
2021/09/05 00:24:42;;;;;;;7.38;5.32;;;12.60;99.90;;;;;;5064699;28;20025;-50
2021/09/05 00:27:08;;;;;;;8.15;5.35;;;12.60;99.90;;;;;;5060708;28;20031;-52
2021/09/05 00:29:33;;;;;;;7.85;5.50;;;12.60;99.90;;;;;;5058867;28;20105;-50
2021/09/05 00:31:59;;;;;;;8.35;5.03;;;12.50;99.90;;;;;;5065830;28;20052;-52
2021/09/05 00:34:25;;;;;;;8.52;5.13;;;12.50;99.90;;;;;;5057823;28;20037;-49
2021/09/05 00:36:50;;;;;;;6.05;4.82;;;12.50;99.90;;;;;;5065279;28;20475;-54
2021/09/05 00:39:16;;;;;;;8.93;5.55;;;12.50;99.90;;;;;;5059117;28;20059;-53
2021/09/05 00:41:41;;;;;;;8.27;5.00;;;12.40;99.90;;;;;;5061044;28;20021;-51
2021/09/05 00:44:09;;;;;;;7.70;5.57;;;12.40;99.90;;;;;;5063527;28;20028;-54
2021/09/05 00:46:36;;;;;;;6.90;4.82;;;12.40;99.90;;;;;;5056463;28;20029;-50
2021/09/05 00:49:04;;;;;;;7.95;5.50;;;12.40;99.90;;;;;;5065784;28;20017;-52
2021/09/05 00:51:33;;;;;;;7.68;5.00;;;12.40;99.90;;;;;;5058353;28;20019;-50
2021/09/05 00:54:01;;;;;;;8.32;5.20;;;12.40;99.90;;;;;;5066307;28;20029;-50
2021/09/05 00:56:28;;;;;;;8.13;4.70;;;12.30;99.90;;;;;;5057166;28;20051;-50
2021/09/05 00:58:55;;;;;;;6.97;5.03;;;12.30;99.90;;;;;;5056218;28;20541;-49
2021/09/05 01:01:22;;;;;;;8.23;5.30;;;12.30;99.90;;;;;;5050752;28;20127;-49
2021/09/05 01:03:48;;;;;;;5.38;4.63;;;12.20;99.90;;;;;;5056430;28;20457;-51
2021/09/05 01:06:13;;;;;;;9.98;5.00;;;12.20;99.90;;;;;;5064456;28;20016;-51
2021/09/05 01:08:39;;;;;;;6.47;5.10;;;12.20;99.90;;;;;;5058419;28;20013;-49
2021/09/05 01:11:05;;;;;;;5.97;5.13;;;12.20;99.90;;;;;;5065879;28;20021;-49
2021/09/05 01:13:31;;;;;;;14.52;5.75;;;12.10;99.90;;;;;;5057759;28;20025;-50
2021/09/05 01:15:57;;;;;;;6.45;4.70;;;12.10;99.90;;;;;;5057809;28;20036;-50
2021/09/05 01:18:22;;;;;;;8.25;5.07;;;12.10;99.90;;;;;;5063697;28;20033;-50
2021/09/05 01:20:48;;;;;;;7.78;4.90;;;12.10;99.90;;;;;;5057237;28;20031;-50
2021/09/05 01:23:13;;;;;;;6.03;4.90;;;12.10;99.90;;;;;;5060344;28;20025;-52
2021/09/05 01:25:40;;;;;;;7.78;4.80;;;12.00;99.90;;;;;;5062051;28;20085;-50
2021/09/05 01:28:10;;;;;;;10.07;5.50;;;12.00;99.90;;;;;;5058813;28;20479;-49
2021/09/05 01:30:36;;;;;;;8.00;4.93;;;12.00;99.90;;;;;;5061172;28;20440;-49
2021/09/05 01:33:01;;;;;;;9.00;5.50;;;12.00;99.90;;;;;;5041295;28;20014;-50
2021/09/05 01:35:27;;;;;;;6.43;4.45;;;12.00;99.90;;;;;;5060744;28;20036;-51
2021/09/05 01:37:53;;;;;;;5.88;4.57;;;12.00;99.90;;;;;;5060329;28;20021;-49
2021/09/05 01:40:18;;;;;;;7.75;4.68;;;11.90;99.90;;;;;;5060191;28;20493;-51
2021/09/05 01:42:44;;;;;;;7.72;4.88;;;11.90;99.90;;;;;;5059622;28;20089;-53
2021/09/05 01:45:09;;;;;;;7.35;4.78;;;11.90;99.90;;;;;;5059322;28;20476;-50
2021/09/05 01:47:35;;;;;;;12.10;5.18;;;11.90;99.90;;;;;;5061119;28;20372;-49
2021/09/05 01:50:01;;;;;;;7.57;5.55;;;11.80;99.90;;;;;;5058910;28;20021;-52
2021/09/05 01:52:26;;;;;;;6.25;4.07;;;11.80;99.90;;;;;;5060240;28;20047;-50
2021/09/05 01:54:52;;;;;;;7.03;5.00;;;11.80;99.90;;;;;;5059911;28;20064;-51
2021/09/05 01:57:17;;;;;;;6.18;4.38;;;11.70;99.90;;;;;;5060821;28;20123;-52
2021/09/05 01:59:43;;;;;;;6.93;4.90;;;11.70;99.90;;;;;;5060455;28;20502;-49
2021/09/05 02:02:08;;;;;;;5.18;4.38;;;11.70;99.90;;;;;;5058907;28;20178;-49
2021/09/05 02:04:34;;;;;;;6.03;4.60;;;11.70;99.90;;;;;;5053058;28;20032;-51
2021/09/05 02:07:00;;;;;;;7.22;5.47;;;11.60;99.90;;;;;;5060168;28;20051;-52
2021/09/05 02:09:25;;;;;;;8.60;5.15;;;11.60;99.90;;;;;;5059661;28;20016;-50
2021/09/05 02:11:52;;;;;;;6.32;4.95;;;11.60;99.90;;;;;;5054864;28;20029;-50
2021/09/05 02:14:17;;;;;;;7.80;4.28;;;11.60;99.90;;;;;;5060527;28;20025;-50
2021/09/05 02:16:44;;;;;;;8.20;4.80;;;11.50;99.90;;;;;;5059702;28;20110;-54
2021/09/05 02:19:09;;;;;;;7.45;4.72;;;11.50;99.90;;;;;;5059062;28;20544;-50
2021/09/05 02:21:35;;;;;;;7.60;4.88;;;11.50;99.90;;;;;;5043785;28;20055;-50
2021/09/05 02:24:00;;;;;;;6.68;4.90;;;11.50;99.90;;;;;;5057776;28;20029;-51
2021/09/05 02:26:26;;;;;;;7.28;4.85;;;11.50;99.90;;;;;;5063936;28;20029;-54
2021/09/05 02:28:51;;;;;;;8.48;5.70;;;11.50;99.90;;;;;;5056110;28;20021;-51
2021/09/05 02:31:17;;;;;;;6.53;4.68;;;11.50;99.90;;;;;;5060187;28;20069;-52
2021/09/05 02:33:43;;;;;;;10.25;5.22;;;11.40;99.90;;;;;;5059787;28;20029;-51
2021/09/05 02:36:08;;;;;;;6.45;4.93;;;11.40;99.90;;;;;;5058248;28;20020;-52
2021/09/05 02:38:34;;;;;;;6.75;4.68;;;11.40;99.90;;;;;;5044218;28;20083;-50
2021/09/05 02:40:59;;;;;;;6.97;4.95;;;11.40;99.90;;;;;;5057423;28;20024;-52
2021/09/05 02:43:25;;;;;;;6.88;4.00;;;11.40;99.90;;;;;;5059757;28;20024;-51
2021/09/05 02:45:50;;;;;;;6.05;4.70;;;11.40;99.90;;;;;;5058514;28;20027;-52
2021/09/05 02:48:16;;;;;;;7.60;4.43;;;11.40;99.90;;;;;;5059753;28;20158;-52
2021/09/05 02:50:42;;;;;;;8.23;4.78;;;11.30;99.90;;;;;;5060511;28;20048;-50
2021/09/05 02:53:07;;;;;;;7.55;4.82;;;11.30;99.90;;;;;;5058197;28;20028;-50
2021/09/05 02:55:33;;;;;;;6.60;4.68;;;11.30;99.90;;;;;;5061758;28;20037;-52
2021/09/05 02:57:58;;;;;;;11.07;4.82;;;11.20;99.90;;;;;;5056542;28;20020;-50
2021/09/05 03:00:24;;;;;;;9.98;4.93;;;11.20;99.90;;;;;;5059456;28;20024;-50
2021/09/05 03:02:51;;;;;;;7.15;4.72;;;11.20;99.90;;;;;;5058980;28;20021;-51
2021/09/05 03:05:16;;;;;;;6.72;4.07;;;11.20;99.90;;;;;;5058992;28;20032;-51
2021/09/05 03:07:42;;;;;;;5.50;4.57;;;11.20;99.90;;;;;;5041910;28;20070;-50
2021/09/05 03:10:08;;;;;;;8.18;4.90;;;11.10;99.90;;;;;;5057833;28;20021;-52
2021/09/05 03:12:33;;;;;;;6.78;3.85;;;11.10;99.90;;;;;;5060254;28;20035;-51
2021/09/05 03:14:59;;;;;;;6.63;3.80;;;11.10;99.90;;;;;;5057694;28;20017;-50
2021/09/05 03:17:24;;;;;;;6.75;4.30;;;11.10;99.90;;;;;;5059468;28;20044;-51
2021/09/05 03:19:50;;;;;;;8.50;4.75;;;11.10;99.90;;;;;;5058719;28;20029;-50
2021/09/05 03:22:15;;;;;;;8.32;4.75;;;11.10;99.90;;;;;;5058888;28;20289;-50
2021/09/05 03:24:41;;;;;;;6.72;4.28;;;11.00;99.90;;;;;;5058030;28;20033;-51
2021/09/05 03:27:07;;;;;;;6.40;4.05;;;11.00;99.90;;;;;;5057536;28;20029;-52
2021/09/05 03:29:33;;;;;;;9.23;4.68;;;11.00;99.90;;;;;;5056103;28;20035;-51
2021/09/05 03:31:58;;;;;;;6.07;4.70;;;11.00;99.90;;;;;;5057465;28;20021;-54
2021/09/05 03:34:24;;;;;;;6.97;3.97;;;10.90;99.90;;;;;;5059163;28;20093;-51
2021/09/05 03:36:49;;;;;;;8.40;4.50;;;10.90;99.90;;;;;;5040887;28;20029;-50
2021/09/05 03:39:15;;;;;;;5.28;4.53;;;10.90;99.90;;;;;;5058545;28;20029;-50
2021/09/05 03:41:40;;;;;;;7.55;4.82;;;10.90;99.90;;;;;;5058406;28;20032;-50
2021/09/05 03:44:06;;;;;;;7.80;3.95;;;10.90;99.90;;;;;;5058922;28;20036;-51
2021/09/05 03:46:31;;;;;;;5.65;3.90;;;10.90;99.90;;;;;;5062582;28;20526;-50
2021/09/05 03:48:57;;;;;;;5.70;4.35;;;10.90;99.90;;;;;;5060938;28;20105;-50
2021/09/05 03:51:22;;;;;;;6.25;4.20;;;10.90;99.90;;;;;;5062841;28;20118;-53
2021/09/05 03:53:48;;;;;;;4.53;3.22;;;10.80;99.90;;;;;;5062762;28;20025;-53
2021/09/05 03:56:14;;;;;;;5.22;3.75;;;10.80;99.90;;;;;;5061159;28;20595;-53
2021/09/05 03:58:39;;;;;;;7.50;3.92;;;10.80;99.90;;;;;;5062257;28;20025;-51
2021/09/05 04:01:05;;;;;;;5.78;4.30;;;10.80;99.90;;;;;;5060918;28;20060;-54
2021/09/05 04:03:30;;;;;;;6.30;3.63;;;10.80;99.90;;;;;;5062691;28;20025;-51
2021/09/05 04:05:56;;;;;;;9.00;4.57;;;10.70;99.90;;;;;;5060844;28;20573;-51
2021/09/05 04:08:38;;;;;;;7.00;4.32;;;10.70;99.90;;;;;;5062417;28;20029;-53
2021/09/05 04:11:04;;;;;;;7.05;4.38;;;10.70;99.90;;;;;;5061371;28;20077;-54
2021/09/05 04:13:29;;;;;;;5.25;4.43;;;10.70;99.90;;;;;;5062381;28;20583;-53
2021/09/05 04:15:55;;;;;;;5.95;3.67;;;10.70;99.90;;;;;;5062276;28;20470;-52
2021/09/05 04:18:20;;;;;;;5.60;3.85;;;10.70;99.90;;;;;;5061502;28;20052;-51
2021/09/05 04:20:46;;;;;;;5.95;3.85;;;10.60;99.90;;;;;;5062198;28;20086;-51
2021/09/05 04:23:12;;;;;;;5.28;3.95;;;10.60;99.90;;;;;;5059684;28;20024;-52
2021/09/05 04:25:37;;;;;;;6.00;3.88;;;10.50;99.90;;;;;;5061947;28;20031;-51
2021/09/05 04:28:03;;;;;;;5.97;4.38;;;10.50;99.90;;;;;;5057717;28;20635;-51
2021/09/05 04:30:28;;;;;;;6.45;4.13;;;10.50;99.90;;;;;;5043817;28;20027;-53
2021/09/05 04:32:54;;;;;;;5.45;3.60;;;10.50;99.90;;;;;;5062265;28;20017;-51
2021/09/05 04:35:19;;;;;;;7.13;3.95;;;10.50;99.90;;;;;;5059878;28;20045;-54
2021/09/05 04:37:45;;;;;;;6.97;4.30;;;10.40;99.90;;;;;;5044081;28;20055;-53
2021/09/05 04:40:11;;;;;;;4.97;3.70;;;10.40;99.90;;;;;;5041729;28;20514;-52
2021/09/05 04:42:36;;;;;;;7.22;4.20;;;10.40;99.90;;;;;;5061866;28;20036;-52
2021/09/05 04:45:03;;;;;;;7.18;3.85;;;10.40;99.90;;;;;;5060623;28;20037;-52
2021/09/05 04:47:28;;;;;;;7.00;4.22;;;10.40;99.90;;;;;;5061164;28;20013;-53
2021/09/05 04:49:54;;;;;;;4.38;3.45;;;10.40;99.90;;;;;;5043984;28;20407;-54
2021/09/05 04:52:19;;;;;;;5.53;4.15;;;10.40;99.90;;;;;;5060515;28;20352;-51
2021/09/05 04:54:45;;;;;;;6.53;3.38;;;10.30;99.90;;;;;;5054147;28;20104;-51
2021/09/05 04:57:10;;;;;;;5.15;3.55;;;10.30;99.90;;;;;;5060443;28;20060;-52
2021/09/05 04:59:36;;;;;;;4.32;3.47;;;10.30;99.90;;;;;;5061671;28;20111;-54
2021/09/05 05:02:02;;;;;;;7.07;4.28;;;10.30;99.90;;;;;;5060842;28;20028;-54
2021/09/05 05:04:28;;;;;;;5.80;3.55;;;10.30;99.90;;;;;;5053687;28;20024;-54
2021/09/05 05:06:53;;;;;;;5.57;3.67;;;10.30;99.90;;;;;;5061466;28;20028;-53
2021/09/05 05:09:19;;;;;;;5.45;4.05;;;10.20;99.90;;;;;;5060707;28;20029;-54
2021/09/05 05:11:44;;;;;;;7.03;3.75;;;10.20;99.90;;;;;;5056129;28;20402;-55
2021/09/05 05:14:13;;;;;;;4.25;3.65;;;10.30;99.90;;;;;;5065930;28;20474;-51
2021/09/05 05:16:39;;;;;;;5.05;3.50;;;10.30;99.90;;;;;;5057405;28;20398;-51
2021/09/05 05:19:04;;;;;;;7.25;4.10;;;10.30;99.90;;;;;;5065439;28;20030;-51
2021/09/05 05:21:30;;;;;;;5.03;3.65;;;10.30;99.90;;;;;;5055091;28;20021;-52
2021/09/05 05:23:57;;;;;;;5.32;3.72;;;10.40;99.90;;;;;;5057294;28;20025;-52
2021/09/05 05:26:24;;;;;;;4.80;3.47;;;10.40;99.90;;;;;;5062568;28;20043;-51
2021/09/05 05:28:50;;;;;;;7.35;4.55;;;10.40;99.90;;;;;;5054200;28;20025;-51
2021/09/05 05:31:16;;;;;;;6.60;3.28;;;10.40;99.90;;;;;;5064380;28;20055;-52
2021/09/05 05:33:41;;;;;;;5.60;3.90;;;10.40;99.90;;;;;;5057607;28;20025;-51
2021/09/05 05:36:07;;;;;;;7.50;3.75;;;10.50;99.90;;;;;;5064611;28;20085;-53
2021/09/05 05:38:33;;;;;;;3.85;2.97;;;10.50;99.90;;;;;;5057212;28;20386;-54
2021/09/05 05:40:58;;;;;;;6.57;3.83;;;10.50;99.90;;;;;;5057375;28;20032;-55
2021/09/05 05:43:24;;;;;;;5.07;3.13;;;10.60;99.90;;;;;;5062253;28;20154;-53
2021/09/05 05:45:49;;;;;;;5.90;3.35;;;10.60;99.90;;;;;;5057127;28;20025;-53
2021/09/05 05:48:15;;;;;;;5.32;3.10;;;10.60;99.90;;;;;;5063851;28;20025;-51
2021/09/05 05:50:47;;;;;;;7.80;3.67;;;10.70;99.90;;;;;;5057398;28;20554;-55
2021/09/05 05:53:14;;;;;;;4.68;4.00;;;10.70;99.90;;;;;;5065222;28;20056;-53
2021/09/05 05:55:42;;;;;;;5.25;3.20;;;10.80;99.90;;;;;;5056498;28;20033;-52
2021/09/05 05:58:08;;;;;;;6.95;3.53;;;10.80;99.90;;;;;;5059183;28;20021;-51
2021/09/05 06:00:35;;;;;;;3.20;2.55;;;10.90;99.90;;;;;;5060756;28;20021;-52
2021/09/05 06:03:01;;;;;;;5.55;3.78;;;10.90;99.90;;;;;;5057927;28;20104;-55
2021/09/05 06:05:26;;;;;;;4.55;3.08;;;10.90;99.90;;;;;;5062573;28;20104;-54
2021/09/05 06:07:52;;;;;;;4.05;3.33;;;11.00;99.90;;;;;;5056183;28;20582;-51
2021/09/05 06:10:18;;;;;;;4.40;3.40;;;11.10;99.90;;;;;;5064353;28;20039;-52
2021/09/05 06:12:43;;;;;;;5.35;3.15;;;11.10;99.90;;;;;;5055610;28;20120;-51
2021/09/05 06:15:09;;;;;;;4.88;3.22;;;11.20;99.90;;;;;;5058444;28;20020;-54
2021/09/05 06:17:35;;;;;;;5.28;3.50;;;11.30;99.90;;;;;;5059964;28;20035;-51
2021/09/05 06:20:00;;;;;;;4.32;3.28;;;11.30;99.90;;;;;;5058945;28;20082;-50
2021/09/05 06:22:26;;;;;;;3.40;3.00;;;11.30;99.90;;;;;;5028861;28;20033;-52
2021/09/05 06:24:51;;;;;;;3.90;2.90;;;11.40;99.90;;;;;;5057445;28;20386;-52
2021/09/05 06:27:17;;;;;;;5.35;2.90;;;11.40;99.90;;;;;;5059657;28;20368;-52
2021/09/05 06:29:42;;;;;;;3.78;2.95;;;11.50;99.90;;;;;;5056965;28;20032;-53
2021/09/05 06:32:09;;;;;;;4.35;2.90;;;11.50;99.90;;;;;;5056658;28;20051;-54
2021/09/05 06:34:34;;;;;;;9.10;3.60;;;11.60;99.90;;;;;;5058454;28;20032;-54
2021/09/05 06:37:00;;;;;;;4.82;2.85;;;11.70;99.90;;;;;;5058978;28;20025;-53
2021/09/05 06:39:25;;;;;;;6.38;3.30;;;11.70;99.90;;;;;;5059207;28;20064;-50
2021/09/05 06:41:51;;;;;;;3.75;2.55;;;11.80;99.90;;;;;;5057904;28;20033;-51
2021/09/05 06:44:17;;;;;;;4.45;3.30;;;11.80;99.90;;;;;;5041379;28;20024;-50
2021/09/05 06:46:42;;;;;;;4.22;2.50;;;11.90;99.90;;;;;;5059332;28;20024;-50
2021/09/05 06:49:08;;;;;;;4.15;3.30;;;11.90;99.90;;;;;;5057916;28;20529;-51
2021/09/05 06:51:33;;;;;;;3.25;2.78;;;12.00;99.90;;;;;;5059343;28;20013;-51
2021/09/05 06:53:59;;;;;;;5.32;2.95;;;12.00;99.90;;;;;;5040769;28;20487;-52
2021/09/05 06:56:24;;;;;;;3.30;2.80;;;12.20;99.90;;;;;;5058735;28;20039;-51
2021/09/05 06:58:50;;;;;;;5.35;3.15;;;12.20;99.90;;;;;;5058113;28;20394;-50
2021/09/05 07:01:15;;;;;;;3.92;2.55;;;12.30;99.90;;;;;;5059142;28;20028;-51
2021/09/05 07:03:41;;;;;;;3.63;2.72;;;12.40;99.90;;;;;;5059404;28;20040;-52
2021/09/05 07:06:06;;;;;;;5.78;2.38;;;12.50;99.90;;;;;;5057844;28;20025;-50
2021/09/05 07:08:32;;;;;;;4.90;2.85;;;12.60;99.90;;;;;;5059415;28;20107;-50
2021/09/05 07:10:58;;;;;;;4.88;2.60;;;12.80;99.90;;;;;;5058953;28;20092;-50
2021/09/05 07:13:23;;;;;;;4.32;3.25;;;12.90;99.90;;;;;;5058746;28;20367;-49
2021/09/05 07:15:49;;;;;;;4.05;2.53;;;13.10;99.90;;;;;;5059093;28;20467;-49
2021/09/05 07:18:14;;;;;;;4.05;2.60;;;13.20;99.90;;;;;;5041213;28;20036;-50
2021/09/05 07:20:40;;;;;;;4.95;2.78;;;13.40;99.90;;;;;;5063636;28;20052;-48
2021/09/05 07:23:06;;;;;;;14.88;2.63;;;13.50;99.90;;;;;;5061773;28;20532;-51
2021/09/05 07:25:31;;;;;;;3.83;3.13;;;13.70;99.90;;;;;;5044081;28;20437;-51
2021/09/05 07:27:57;;;;;;;3.45;2.95;;;13.90;99.90;;;;;;5059066;28;20078;-49
2021/09/05 07:30:23;;;;;;;3.00;2.67;;;14.10;99.90;;;;;;5062680;28;20589;-50
2021/09/05 07:32:48;;;;;;;3.45;2.85;;;14.30;99.90;;;;;;5063369;28;20280;-50
2021/09/05 07:35:14;;;;;;;3.58;2.40;;;14.40;99.90;;;;;;5062475;28;20519;-49
2021/09/05 07:37:43;;;;;;;4.22;2.38;;;14.60;99.90;;;;;;5063163;28;20020;-50
2021/09/05 07:40:10;;;;;;;3.83;2.88;;;14.70;99.90;;;;;;5060978;28;20028;-50
2021/09/05 07:42:35;;;;;;;4.03;2.85;;;15.00;99.90;;;;;;5044910;28;20029;-51
2021/09/05 07:45:01;;;;;;;4.15;3.00;;;15.10;99.90;;;;;;5061789;28;20090;-51
2021/09/05 07:47:26;;;;;;;4.63;2.90;;;15.30;99.90;;;;;;5062156;28;20054;-49
2021/09/05 07:49:52;;;;;;;4.07;2.65;;;15.30;99.90;;;;;;5063111;28;20023;-49
2021/09/05 07:52:17;;;;;;;5.20;2.75;;;15.40;99.90;;;;;;5061873;28;20499;-49
2021/09/05 07:54:43;;;;;;;2.55;2.35;;;15.50;99.90;;;;;;5044678;28;20039;-51
2021/09/05 07:57:09;;;;;;;4.68;3.00;;;15.60;99.90;;;;;;5060573;28;20039;-50
2021/09/05 07:59:35;;;;;;;4.57;2.30;;;15.70;99.90;;;;;;5053850;22;20763;-50
2021/09/05 08:02:01;;;;;;;5.68;3.10;;;15.80;99.90;;;;;;5025923;28;20029;-53
2021/09/05 08:04:26;;;;;;;3.70;2.80;;;15.90;99.90;;;;;;5030097;28;20034;-52
2021/09/05 08:06:53;;;;;;;4.25;2.33;;;16.10;99.90;;;;;;5026777;28;20053;-48
2021/09/05 08:09:19;;;;;;;3.30;2.88;;;16.20;99.90;;;;;;5010888;28;20030;-49
2021/09/05 08:11:45;;;;;;;3.30;2.80;;;16.30;99.90;;;;;;5025521;28;20028;-50
2021/09/05 08:14:10;;;;;;;4.10;2.85;;;16.40;99.90;;;;;;5028440;28;20506;-55
2021/09/05 08:16:38;;;;;;;3.00;2.65;;;16.40;99.90;;;;;;5026013;28;20021;-48
2021/09/05 08:19:04;;;;;;;4.35;2.80;;;16.60;99.90;;;;;;5029220;28;20060;-52
2021/09/05 08:21:29;;;;;;;4.65;2.85;;;16.70;99.90;;;;;;5024481;28;20041;-46
2021/09/05 08:23:55;;;;;;;4.97;2.47;;;16.90;99.90;;;;;;5030314;28;20017;-51
2021/09/05 08:26:23;;;;;;;5.22;2.65;;;16.90;99.90;;;;;;5026900;28;20034;-50
2021/09/05 08:28:49;;;;;;;3.60;2.72;;;16.90;99.90;;;;;;5026123;28;20021;-46
2021/09/05 08:31:15;;;;;;;5.03;2.90;;;17.00;99.90;;;;;;5026346;28;20030;-50
2021/09/05 08:33:40;;;;;;;5.97;2.97;;;17.20;99.90;;;;;;5013491;28;20072;-50
2021/09/05 08:36:06;;;;;;;3.35;2.50;;;17.30;99.90;;;;;;4995883;28;20034;-51
2021/09/05 08:38:32;;;;;;;3.40;2.55;;;17.40;99.90;;;;;;4994356;28;20072;-51
2021/09/05 08:40:58;;;;;;;5.55;2.67;;;17.40;99.90;;;;;;5000788;28;20642;-49
2021/09/05 08:43:24;;;;;;;3.42;2.88;;;17.50;99.90;;;;;;5017935;28;20030;-50
2021/09/05 08:45:50;;;;;;;4.97;3.28;;;17.70;99.90;;;;;;4993146;28;20033;-49
2021/09/05 08:48:17;;;;;;;7.47;3.10;;;17.90;99.90;;;;;;5020052;28;20018;-48
2021/09/05 08:50:45;;;;;;;5.22;2.83;;;18.00;99.90;;;;;;5004047;28;20562;-53
2021/09/05 08:53:10;;;;;;;5.28;2.25;;;17.90;99.90;;;;;;4999588;28;20109;-48
2021/09/05 08:55:36;;;;;;;3.47;2.70;;;17.70;99.90;;;;;;5016450;28;20500;-53
2021/09/05 08:58:02;;;;;;;5.60;3.28;;;17.60;99.90;;;;;;5014947;28;20034;-49
2021/09/05 09:00:28;;;;;;;3.60;2.80;;;17.80;99.90;;;;;;5021808;28;20291;-51
2021/09/05 09:02:55;;;;;;;3.60;3.05;;;17.90;99.90;;;;;;5015883;28;20396;-51
2021/09/05 09:05:38;;;;;;;3.50;2.83;;;18.00;99.90;;;;;;5014328;28;20022;-51
2021/09/05 09:08:05;;;;;;;6.53;3.05;;;18.20;99.90;;;;;;5016266;28;20021;-52
2021/09/05 09:10:32;;;;;;;6.78;2.92;;;18.40;99.90;;;;;;5019488;28;20092;-53
2021/09/05 09:12:58;;;;;;;6.07;3.33;;;18.60;99.90;;;;;;5026530;28;20079;-48
2021/09/05 09:15:25;;;;;;;3.58;2.83;;;18.80;99.90;;;;;;5025210;28;20372;-53
2021/09/05 09:18:01;;;;;;;5.30;3.08;;;18.80;99.90;;;;;;5027997;28;20131;-49
2021/09/05 09:20:40;;;;;;;6.13;3.20;;;18.80;99.90;;;;;;5014289;28;20029;-50
2021/09/05 09:23:13;;;;;;;3.60;3.03;;;18.80;99.90;;;;;;5027030;28;20021;-52
2021/09/05 09:26:00;;;;;;;3.22;2.78;;;18.70;99.90;;;;;;5029104;28;20555;-50
2021/09/05 09:28:29;;;;;;;3.38;2.88;;;18.80;99.90;;;;;;5022599;28;20048;-52
2021/09/05 09:31:01;;;;;;;4.65;3.38;;;18.80;99.90;;;;;;5029262;28;20025;-51
2021/09/05 09:33:28;;;;;;;5.03;3.10;;;18.80;99.90;;;;;;5020901;28;20030;-52
2021/09/05 09:36:01;;;;;;;3.42;2.72;;;18.80;99.90;;;;;;5015245;28;20034;-51
2021/09/05 09:38:28;;;;;;;5.15;3.15;;;18.80;99.90;;;;;;5015325;28;20444;-54
2021/09/05 09:41:11;;;;;;;6.32;2.88;;;18.90;99.90;;;;;;5005425;28;20033;-55
2021/09/05 09:43:54;;;;;;;5.43;3.33;;;18.90;99.90;;;;;;5015116;28;20053;-53
2021/09/05 09:46:31;;;;;;;7.57;3.10;;;18.80;99.90;;;;;;5012862;28;20099;-52
2021/09/05 09:49:00;;;;;;;4.20;3.45;;;18.80;99.90;;;;;;5019018;28;20026;-54
2021/09/05 09:51:26;;;;;;;6.13;3.63;;;18.80;99.90;;;;;;4997862;28;20090;-52
2021/09/05 09:53:52;;;;;;;4.53;3.08;;;18.80;99.90;;;;;;5021967;28;20032;-47
2021/09/05 09:56:20;;;;;;;3.30;3.00;;;18.60;99.90;;;;;;4998809;28;20032;-54
2021/09/05 09:58:47;;;;;;;5.32;3.85;;;18.60;99.90;;;;;;5019420;28;20094;-50
2021/09/05 10:01:22;;;;;;;6.47;3.70;;;18.50;99.90;;;;;;5016309;28;20424;-51
2021/09/05 10:03:50;;;;;;;4.43;3.03;;;18.40;99.90;;;;;;5016745;28;20380;-53
2021/09/05 10:06:16;;;;;;;4.22;3.45;;;18.40;99.90;;;;;;5000740;28;20035;-49
2021/09/05 10:08:46;;;;;;;4.95;3.08;;;18.40;99.90;;;;;;5017191;28;20603;-56
2021/09/05 10:11:15;;;;;;;4.65;3.30;;;18.40;99.90;;;;;;5021593;28;20064;-50
2021/09/05 10:13:42;;;;;;;6.72;3.40;;;18.50;99.90;;;;;;5028686;28;20499;-52
2021/09/05 10:16:09;;;;;;;5.60;3.67;;;18.50;99.90;;;;;;5016857;28;20099;-53
2021/09/05 10:18:40;;;;;;;5.22;3.75;;;18.60;99.90;;;;;;5016941;28;20022;-51
2021/09/05 10:21:07;;;;;;;5.22;3.80;;;18.50;99.90;;;;;;5022012;28;20021;-51
2021/09/05 10:23:35;;;;;;;4.95;3.17;;;18.40;99.90;;;;;;5018259;28;20072;-56
2021/09/05 10:26:12;;;;;;;5.10;3.30;;;18.40;99.90;;;;;;5022195;28;20057;-50
2021/09/05 10:28:40;;;;;;;5.15;4.53;;;18.30;99.90;;;;;;5012893;28;20072;-48
2021/09/05 10:31:10;;;;;;;5.45;3.70;;;18.10;99.90;;;;;;5023521;28;20018;-48
2021/09/05 10:33:42;;;;;;;6.05;4.25;;;18.10;99.90;;;;;;5016245;28;20388;-49
2021/09/05 10:36:12;;;;;;;7.07;3.90;;;18.20;99.90;;;;;;5018331;28;20104;-48
2021/09/05 10:38:39;;;;;;;5.80;3.78;;;18.20;99.90;;;;;;5019031;28;20079;-52
2021/09/05 10:41:13;;;;;;;5.18;4.10;;;18.20;99.90;;;;;;5018066;28;20400;-48
2021/09/05 10:43:48;;;;;;;4.25;3.85;;;18.10;99.90;;;;;;5019743;28;20030;-50
2021/09/05 10:46:16;;;;;;;6.33;3.97;;;18.20;99.90;;;;;;5018846;28;20033;-53
2021/09/05 10:48:53;;;;;;;6.93;3.90;;;18.30;99.90;;;;;;4989335;28;20128;-52
2021/09/05 10:51:25;;;;;;;5.43;4.00;;;18.30;99.90;;;;;;4995874;28;20029;-47
2021/09/05 10:53:58;;;;;;;6.93;3.60;;;18.30;99.90;;;;;;4995080;28;20113;-50
2021/09/05 10:56:28;;;;;;;6.85;4.07;;;18.40;99.90;;;;;;5005104;28;20576;-49
2021/09/05 10:58:58;;;;;;;6.32;4.47;;;18.40;99.90;;;;;;5013763;28;20057;-52
2021/09/05 11:01:35;;;;;;;4.68;3.85;;;18.40;99.90;;;;;;5009766;28;20387;-51
2021/09/05 11:04:10;;;;;;;5.22;4.13;;;18.50;99.90;;;;;;5016564;28;20017;-49
2021/09/05 11:06:52;;;;;;;6.45;4.68;;;18.50;99.90;;;;;;5017236;28;20112;-50
2021/09/05 11:09:18;;;;;;;6.32;4.38;;;18.60;99.90;;;;;;5013612;28;20029;-55
2021/09/05 11:11:57;;;;;;;6.65;4.18;;;18.60;99.90;;;;;;5022985;28;20029;-48
2021/09/05 11:14:34;;;;;;;6.70;4.43;;;18.60;99.90;;;;;;5011800;28;20030;-55
2021/09/05 11:17:19;;;;;;;5.45;4.05;;;18.60;99.90;;;;;;5015415;28;20104;-54
2021/09/05 11:20:00;;;;;;;6.90;4.40;;;18.70;99.90;;;;;;5021215;28;20022;-54
2021/09/05 11:22:29;;;;;;;5.60;4.57;;;18.80;99.90;;;;;;5013711;28;20017;-51
2021/09/05 11:25:16;;;;;;;6.65;4.20;;;18.80;99.90;;;;;;5027711;28;20764;-50
2021/09/05 11:28:01;;;;;;;7.63;4.43;;;18.80;99.90;;;;;;5015180;28;20025;-47
2021/09/05 11:30:49;;;;;;;7.40;4.55;;;18.90;99.90;;;;;;4995780;28;20547;-53
2021/09/05 11:33:14;;;;;;;10.30;4.85;;;18.90;99.90;;;;;;5021733;28;20191;-50
2021/09/05 11:35:40;;;;;;;5.43;4.53;;;19.00;99.90;;;;;;5027212;28;20496;-48
2021/09/05 11:38:06;;;;;;;5.32;4.28;;;19.00;99.90;;;;;;5021149;28;20391;-48
2021/09/05 11:40:41;;;;;;;5.28;4.63;;;19.00;99.90;;;;;;5022758;28;20022;-48
2021/09/05 11:43:06;;;;;;;5.70;4.28;;;19.00;99.90;;;;;;4996727;28;20113;-51
2021/09/05 11:45:38;;;;;;;6.70;4.68;;;19.00;99.90;;;;;;4999050;28;20121;-48
2021/09/05 11:48:05;;;;;;;6.13;4.10;;;18.80;99.90;;;;;;4992688;28;20104;-57
2021/09/05 11:50:36;;;;;;;5.28;3.67;;;18.80;99.90;;;;;;5012842;28;20424;-51
2021/09/05 11:53:02;;;;;;;6.88;4.80;;;18.80;99.90;;;;;;5019361;28;20026;-52
2021/09/05 11:55:28;;;;;;;5.68;4.07;;;18.90;99.90;;;;;;5016956;28;20030;-47
2021/09/05 11:57:56;;;;;;;6.85;4.47;;;19.00;99.90;;;;;;5012420;28;20109;-55
2021/09/05 12:00:26;;;;;;;6.28;4.00;;;19.10;99.90;;;;;;5016916;28;20026;-52
2021/09/05 12:02:52;;;;;;;6.22;3.92;;;19.20;99.90;;;;;;5013944;28;20088;-53
2021/09/05 12:05:18;;;;;;;5.63;3.78;;;19.30;99.90;;;;;;5020598;28;20427;-47
2021/09/05 12:07:44;;;;;;;4.85;3.80;;;19.30;99.90;;;;;;5019227;28;20393;-54
2021/09/05 12:10:13;;;;;;;5.93;3.38;;;19.30;99.90;;;;;;5023364;28;20029;-54
2021/09/05 12:12:40;;;;;;;4.47;3.65;;;19.30;99.90;;;;;;5024544;28;20506;-49
2021/09/05 12:15:21;;;;;;;5.47;3.75;;;19.40;99.90;;;;;;5008437;28;20025;-55
2021/09/05 12:17:49;;;;;;;5.45;4.53;;;19.40;99.90;;;;;;5029406;28;20448;-51
2021/09/05 12:20:24;;;;;;;5.38;3.90;;;19.40;99.90;;;;;;5011982;28;20073;-49
2021/09/05 12:22:52;;;;;;;6.35;3.97;;;19.40;99.90;;;;;;5028079;28;20064;-48
2021/09/05 12:25:25;;;;;;;4.97;3.65;;;19.40;99.90;;;;;;5029823;28;20562;-49
2021/09/05 12:27:54;;;;;;;7.32;4.00;;;19.50;99.90;;;;;;5023666;28;20021;-49
2021/09/05 12:30:27;;;;;;;5.38;3.90;;;19.50;99.90;;;;;;5030628;28;20017;-50
2021/09/05 12:33:16;;;;;;;5.57;3.80;;;19.60;99.90;;;;;;5026227;28;20029;-53
2021/09/05 12:35:47;;;;;;;4.80;3.53;;;19.70;99.90;;;;;;5019020;28;20037;-48
2021/09/05 12:38:26;;;;;;;4.43;3.33;;;19.80;99.90;;;;;;5022806;28;20029;-50
2021/09/05 12:40:53;;;;;;;5.20;3.80;;;19.80;99.90;;;;;;5022507;28;20060;-54
2021/09/05 12:43:38;;;;;;;6.93;3.97;;;20.00;99.90;;;;;;5030525;28;20106;-51
2021/09/05 12:46:04;;;;;;;3.77;3.37;;;20.10;99.90;;;;;;5025138;28;20472;-50